createdAt,value
2022-12-11T00:00:56.951Z,42.83
2022-12-11T00:02:29.638Z,41.25
2022-12-11T00:04:01.650Z,43.97
2022-12-11T00:05:33.961Z,42.58
2022-12-11T00:07:06.052Z,41.33
2022-12-11T00:08:38.253Z,51.42
2022-12-11T00:10:10.312Z,52.30
2022-12-11T00:11:42.222Z,50.97
2022-12-11T00:13:14.178Z,49.47
2022-12-11T00:14:46.120Z,55.75
2022-12-11T00:16:20.385Z,55.30
2022-12-11T00:17:56.015Z,48.28
2022-12-11T00:19:28.113Z,47.13
2022-12-11T00:21:05.340Z,47.53
2022-12-11T00:22:37.404Z,38.55
2022-12-11T00:24:09.497Z,45.30
2022-12-11T00:25:46.194Z,39.42
2022-12-11T00:27:18.123Z,40.63
2022-12-11T00:28:54.181Z,41.53
2022-12-11T00:30:26.213Z,41.00
2022-12-11T00:31:58.239Z,39.05
2022-12-11T00:33:30.239Z,42.67
2022-12-11T00:35:02.325Z,45.15
2022-12-11T00:36:34.616Z,41.70
2022-12-11T00:38:06.721Z,45.30
2022-12-11T00:39:40.167Z,43.47
2022-12-11T00:41:12.772Z,44.97
2022-12-11T00:42:44.709Z,44.97
2022-12-11T00:44:16.721Z,46.40
2022-12-11T00:45:49.093Z,41.97
2022-12-11T00:47:21.143Z,40.40
2022-12-11T00:48:53.870Z,42.90
2022-12-11T00:50:25.969Z,43.30
2022-12-11T00:51:58.031Z,44.45
2022-12-11T00:53:30.128Z,35.92
2022-12-11T00:55:02.136Z,41.67
2022-12-11T00:56:35.155Z,40.22
2022-12-11T00:58:07.466Z,41.80
2022-12-11T00:59:39.766Z,42.70
2022-12-11T01:01:15.055Z,37.20
2022-12-11T01:02:47.111Z,40.83
2022-12-11T01:04:19.598Z,39.50
2022-12-11T01:05:56.304Z,42.20
2022-12-11T01:07:28.257Z,44.75
2022-12-11T01:09:18.796Z,37.22
2022-12-11T01:10:50.800Z,35.03
2022-12-11T01:12:25.142Z,36.40
2022-12-11T01:13:57.182Z,34.80
2022-12-11T01:15:41.773Z,35.55
2022-12-11T01:17:14.102Z,32.10
2022-12-11T01:18:46.061Z,35.83
2022-12-11T01:20:19.639Z,37.90
2022-12-11T01:21:51.618Z,31.95
2022-12-11T01:23:23.583Z,36.10
2022-12-11T01:24:55.561Z,38.38
2022-12-11T01:26:27.594Z,40.95
2022-12-11T01:27:59.916Z,37.55
2022-12-11T01:29:32.795Z,34.80
2022-12-11T01:31:12.925Z,37.60
2022-12-11T01:32:45.019Z,34.40
2022-12-11T01:34:17.004Z,34.05
2022-12-11T01:35:49.013Z,34.85
2022-12-11T01:37:24.228Z,34.97
2022-12-11T01:38:56.753Z,34.15
2022-12-11T01:40:28.710Z,29.40
2022-12-11T01:42:01.553Z,32.53
2022-12-11T01:43:33.586Z,30.65
2022-12-11T01:45:35.654Z,30.40
2022-12-11T01:47:08.102Z,28.35
2022-12-11T01:48:42.572Z,28.10
2022-12-11T01:50:14.855Z,31.42
2022-12-11T01:51:57.740Z,29.50
2022-12-11T01:53:35.911Z,28.05
2022-12-11T01:55:10.044Z,36.28
2022-12-11T01:56:44.271Z,33.25
2022-12-11T01:58:17.286Z,31.85
2022-12-11T01:59:49.325Z,30.65
2022-12-11T02:01:27.435Z,28.02
2022-12-11T02:02:59.475Z,31.35
2022-12-11T02:04:32.626Z,31.30
2022-12-11T02:06:05.054Z,29.00
2022-12-11T02:07:47.342Z,28.67
2022-12-11T02:09:25.357Z,27.80
2022-12-11T02:11:16.366Z,29.75
2022-12-11T02:12:55.076Z,27.10
2022-12-11T02:14:48.447Z,25.92
2022-12-11T02:16:32.499Z,28.98
2022-12-11T02:18:34.366Z,27.50
2022-12-11T02:20:22.470Z,25.50
2022-12-11T02:21:55.318Z,23.15
2022-12-11T02:23:48.576Z,26.85
2022-12-11T02:25:37.656Z,26.83
2022-12-11T02:27:35.691Z,27.10
2022-12-11T02:29:09.641Z,25.95
2022-12-11T02:30:43.187Z,27.35
2022-12-11T02:32:24.098Z,29.48
2022-12-11T02:34:05.861Z,35.55
2022-12-11T02:35:41.632Z,31.02
2022-12-11T02:37:19.165Z,30.77
2022-12-11T02:38:52.905Z,33.75
2022-12-11T02:40:27.457Z,29.55
2022-12-11T02:42:00.111Z,29.52
2022-12-11T02:43:33.081Z,33.37
2022-12-11T02:45:06.529Z,35.63
2022-12-11T02:48:11.571Z,27.10
2022-12-11T02:51:17.611Z,22.48
2022-12-11T02:52:51.453Z,24.48
2022-12-11T02:54:28.213Z,23.63
2022-12-11T02:56:13.841Z,22.73
2022-12-11T02:57:59.010Z,23.77
2022-12-11T02:59:39.628Z,23.15
2022-12-11T03:01:11.779Z,21.60
2022-12-11T03:02:44.508Z,20.25
2022-12-11T03:04:16.692Z,22.73
2022-12-11T03:05:51.390Z,21.80
2022-12-11T03:07:26.155Z,21.02
2022-12-11T03:08:58.172Z,19.77
2022-12-11T03:10:30.442Z,19.63
2022-12-11T03:12:02.516Z,20.63
2022-12-11T03:13:34.579Z,21.98
2022-12-11T03:15:14.085Z,20.33
2022-12-11T03:16:57.444Z,20.75
2022-12-11T03:18:44.407Z,21.27
2022-12-11T03:20:19.274Z,20.80
2022-12-11T03:21:59.172Z,21.83
2022-12-11T03:23:36.290Z,23.48
2022-12-11T03:25:13.631Z,20.98
2022-12-11T03:26:56.185Z,21.70
2022-12-11T03:28:54.866Z,21.75
2022-12-11T03:30:29.467Z,20.48
2022-12-11T03:32:29.197Z,21.05
2022-12-11T03:34:04.055Z,19.75
2022-12-11T03:35:40.630Z,19.85
2022-12-11T03:37:13.907Z,20.70
2022-12-11T03:39:00.661Z,19.58
2022-12-11T03:40:34.287Z,17.85
2022-12-11T03:42:08.886Z,21.73
2022-12-11T03:43:41.154Z,19.15
2022-12-11T03:45:13.859Z,19.23
2022-12-11T03:46:46.799Z,19.33
2022-12-11T03:48:19.506Z,19.08
2022-12-11T03:49:52.627Z,17.92
2022-12-11T03:51:25.085Z,20.15
2022-12-11T03:52:57.376Z,19.00
2022-12-11T03:54:29.815Z,19.00
2022-12-11T03:56:03.461Z,20.27
2022-12-11T03:57:37.063Z,18.35
2022-12-11T04:00:41.217Z,24.67
2022-12-11T04:02:13.253Z,20.10
2022-12-11T04:03:45.339Z,18.00
2022-12-11T04:05:17.321Z,18.98
2022-12-11T04:06:49.310Z,18.58
2022-12-11T04:08:25.082Z,20.00
2022-12-11T04:09:57.300Z,20.27
2022-12-11T04:11:34.935Z,19.40
2022-12-11T04:13:07.553Z,22.25
2022-12-11T04:14:58.131Z,18.70
2022-12-11T04:16:30.096Z,17.35
2022-12-11T04:18:20.313Z,18.75
2022-12-11T04:20:10.904Z,17.42
2022-12-11T04:22:01.545Z,17.42
2022-12-11T04:23:52.255Z,15.93
2022-12-11T04:25:24.295Z,17.70
2022-12-11T04:26:56.226Z,18.00
2022-12-11T04:28:28.206Z,17.77
2022-12-11T04:30:00.205Z,18.33
2022-12-11T04:31:32.498Z,18.17
2022-12-11T04:33:04.643Z,18.00
2022-12-11T04:34:36.678Z,17.08
2022-12-11T04:36:09.952Z,14.95
2022-12-11T04:37:42.677Z,16.88
2022-12-11T04:39:14.662Z,17.30
2022-12-11T04:40:46.601Z,16.50
2022-12-11T04:42:18.693Z,16.52
2022-12-11T04:43:50.787Z,16.48
2022-12-11T04:45:22.882Z,16.65
2022-12-11T04:46:55.251Z,17.33
2022-12-11T04:48:27.362Z,18.00
2022-12-11T04:49:59.443Z,20.98
2022-12-11T04:51:31.448Z,21.50
2022-12-11T04:53:03.489Z,16.20
2022-12-11T04:54:35.516Z,15.90
2022-12-11T04:56:13.603Z,15.57
2022-12-11T04:57:45.610Z,15.23
2022-12-11T04:59:17.819Z,14.93
2022-12-11T05:00:49.872Z,14.75
2022-12-11T05:02:21.931Z,12.57
2022-12-11T05:03:54.064Z,11.80
2022-12-11T05:05:26.098Z,11.00
2022-12-11T05:06:58.087Z,9.40
2022-12-11T05:08:30.127Z,11.82
2022-12-11T05:10:02.350Z,14.35
2022-12-11T05:11:34.396Z,13.10
2022-12-11T05:13:06.481Z,12.95
2022-12-11T05:14:38.599Z,16.02
2022-12-11T05:17:45.852Z,15.25
2022-12-11T05:19:17.895Z,15.00
2022-12-11T05:21:02.235Z,16.35
2022-12-11T05:22:34.232Z,18.23
2022-12-11T05:24:06.638Z,18.88
2022-12-11T05:25:38.613Z,17.38
2022-12-11T05:27:13.722Z,17.30
2022-12-11T05:28:46.235Z,17.75
2022-12-11T05:30:18.268Z,18.33
2022-12-11T05:31:50.280Z,18.20
2022-12-11T05:33:22.396Z,19.67
2022-12-11T05:34:54.463Z,20.25
2022-12-11T05:36:29.500Z,24.70
2022-12-11T05:38:01.827Z,22.15
2022-12-11T05:39:33.897Z,22.00
2022-12-11T05:41:07.187Z,20.45
2022-12-11T05:42:39.207Z,17.42
2022-12-11T05:44:13.613Z,17.92
2022-12-11T05:45:45.673Z,15.25
2022-12-11T05:47:20.537Z,15.23
2022-12-11T05:48:56.041Z,12.50
2022-12-11T05:50:31.086Z,18.10
2022-12-11T05:52:03.143Z,18.88
2022-12-11T05:53:36.781Z,20.05
2022-12-11T05:55:10.052Z,21.52
2022-12-11T05:56:42.417Z,19.73
2022-12-11T05:58:14.508Z,20.23
2022-12-11T05:59:46.553Z,19.65
2022-12-11T06:01:21.375Z,18.35
2022-12-11T06:02:53.541Z,19.80
2022-12-11T06:04:25.573Z,22.02
2022-12-11T06:05:57.538Z,22.65
2022-12-11T06:07:29.648Z,21.88
2022-12-11T06:09:02.379Z,25.83
2022-12-11T06:10:34.984Z,27.85
2022-12-11T06:12:07.183Z,25.10
2022-12-11T06:13:39.230Z,24.40
2022-12-11T06:15:11.680Z,31.77
2022-12-11T06:16:43.863Z,28.17
2022-12-11T06:18:15.886Z,42.72
2022-12-11T06:19:47.966Z,40.20
2022-12-11T06:21:22.694Z,33.08
2022-12-11T06:22:54.670Z,25.08
2022-12-11T06:24:26.816Z,23.77
2022-12-11T06:25:58.962Z,18.23
2022-12-11T06:27:31.369Z,22.35
2022-12-11T06:29:08.864Z,24.83
2022-12-11T06:30:42.910Z,32.22
2022-12-11T06:32:15.003Z,30.10
2022-12-11T06:33:47.638Z,32.53
2022-12-11T06:35:19.571Z,28.85
2022-12-11T06:36:51.718Z,34.00
2022-12-11T06:38:24.103Z,30.20
2022-12-11T06:39:56.091Z,30.52
2022-12-11T06:41:28.122Z,35.25
2022-12-11T06:43:00.248Z,45.72
2022-12-11T06:44:32.225Z,39.78
2022-12-11T06:46:05.801Z,42.88
2022-12-11T06:47:37.876Z,47.90
2022-12-11T06:49:09.849Z,48.63
2022-12-11T06:50:41.864Z,45.58
2022-12-11T06:52:18.352Z,40.88
2022-12-11T06:53:55.500Z,38.80
2022-12-11T06:55:27.542Z,43.80
2022-12-11T06:56:59.618Z,42.88
2022-12-11T06:58:31.943Z,40.63
2022-12-11T07:00:04.786Z,38.85
2022-12-11T07:01:36.778Z,29.95
2022-12-11T07:03:10.419Z,40.33
2022-12-11T07:04:42.810Z,38.15
2022-12-11T07:06:15.593Z,39.25
2022-12-11T07:07:47.862Z,36.67
2022-12-11T07:09:20.237Z,35.75
2022-12-11T07:10:52.251Z,34.60
2022-12-11T07:12:24.351Z,33.35
2022-12-11T07:13:59.790Z,30.08
2022-12-11T07:15:33.575Z,33.67
2022-12-11T07:17:07.354Z,28.63
2022-12-11T07:18:41.025Z,28.95
2022-12-11T07:20:13.091Z,29.77
2022-12-11T07:21:45.084Z,28.48
2022-12-11T07:23:17.144Z,28.63
2022-12-11T07:24:49.273Z,30.88
2022-12-11T07:26:22.423Z,31.23
2022-12-11T07:27:54.369Z,28.15
2022-12-11T07:29:26.408Z,19.60
2022-12-11T07:30:58.336Z,11.23
2022-12-11T07:32:30.507Z,9.45
2022-12-11T07:34:05.698Z,9.00
2022-12-11T07:35:38.220Z,8.60
2022-12-11T07:37:10.241Z,7.60
2022-12-11T07:38:42.305Z,8.05
2022-12-11T07:40:14.626Z,8.30
2022-12-11T07:41:47.432Z,8.35
2022-12-11T07:43:19.585Z,8.38
2022-12-11T07:44:51.706Z,7.93
2022-12-11T07:46:27.062Z,6.82
2022-12-11T07:47:59.454Z,7.78
2022-12-11T07:49:33.532Z,7.43
2022-12-11T07:51:28.217Z,7.90
2022-12-11T07:53:00.257Z,7.00
2022-12-11T07:54:32.290Z,7.63
2022-12-11T07:56:04.865Z,7.90
2022-12-11T07:57:37.183Z,7.97
2022-12-11T07:59:09.185Z,7.75
2022-12-11T08:00:41.208Z,7.80
2022-12-11T08:02:13.287Z,8.20
2022-12-11T08:03:46.091Z,7.70
2022-12-11T08:05:18.400Z,8.27
2022-12-11T08:06:50.397Z,9.10
2022-12-11T08:08:22.579Z,8.35
2022-12-11T08:09:54.679Z,8.63
2022-12-11T08:11:27.064Z,9.13
2022-12-11T08:12:59.020Z,7.90
2022-12-11T08:14:31.056Z,8.27
2022-12-11T08:16:08.131Z,8.27
2022-12-11T08:17:40.430Z,8.98
2022-12-11T08:19:13.061Z,9.38
2022-12-11T08:20:45.168Z,8.45
2022-12-11T08:22:17.260Z,9.45
2022-12-11T08:23:49.851Z,9.48
2022-12-11T08:25:21.832Z,10.27
2022-12-11T08:26:54.137Z,9.55
2022-12-11T08:28:27.313Z,9.55
2022-12-11T08:29:59.520Z,9.52
2022-12-11T08:31:31.812Z,10.18
2022-12-11T08:33:03.875Z,10.07
2022-12-11T08:34:35.951Z,9.98
2022-12-11T08:36:10.992Z,10.30
2022-12-11T08:37:43.025Z,9.40
2022-12-11T08:39:15.286Z,11.52
2022-12-11T08:40:47.378Z,11.20
2022-12-11T08:42:19.412Z,10.48
2022-12-11T08:43:55.513Z,10.65
2022-12-11T08:45:27.644Z,10.60
2022-12-11T08:46:59.623Z,10.82
2022-12-11T08:48:31.735Z,10.32
2022-12-11T08:50:04.663Z,11.35
2022-12-11T08:51:36.638Z,10.80
2022-12-11T08:53:08.655Z,11.40
2022-12-11T08:56:20.952Z,10.27
2022-12-11T08:57:53.012Z,10.98
2022-12-11T08:59:25.952Z,10.75
2022-12-11T09:00:58.262Z,11.60
2022-12-11T09:02:30.333Z,10.65
2022-12-11T09:04:02.583Z,11.20
2022-12-11T09:05:35.341Z,10.77
2022-12-11T09:07:07.388Z,11.35
2022-12-11T09:08:39.628Z,11.55
2022-12-11T09:10:11.779Z,11.55
2022-12-11T09:11:43.941Z,11.43
2022-12-11T09:13:15.958Z,10.85
2022-12-11T09:14:48.171Z,12.18
2022-12-11T09:16:22.748Z,11.35
2022-12-11T09:17:54.722Z,9.77
2022-12-11T09:19:31.908Z,10.48
2022-12-11T09:21:09.788Z,12.02
2022-12-11T09:22:43.154Z,11.30
2022-12-11T09:24:15.889Z,10.82
2022-12-11T09:25:48.395Z,11.82
2022-12-11T09:27:21.690Z,12.70
2022-12-11T09:28:55.115Z,11.43
2022-12-11T09:30:27.778Z,10.57
2022-12-11T09:31:59.902Z,10.65
2022-12-11T09:33:31.909Z,11.25
2022-12-11T09:35:04.137Z,10.35
2022-12-11T09:36:36.379Z,10.75
2022-12-11T09:38:08.408Z,11.02
2022-12-11T09:39:40.434Z,11.77
2022-12-11T09:41:39.666Z,12.60
2022-12-11T09:43:30.475Z,14.32
2022-12-11T09:45:04.895Z,11.32
2022-12-11T09:46:39.779Z,10.05
2022-12-11T09:48:13.024Z,9.85
2022-12-11T09:49:45.759Z,10.32
2022-12-11T09:51:40.745Z,11.05
2022-12-11T09:53:22.588Z,10.23
2022-12-11T09:55:00.541Z,10.27
2022-12-11T09:56:50.979Z,11.55
2022-12-11T09:58:31.755Z,10.95
2022-12-11T10:00:28.527Z,11.38
2022-12-11T10:02:15.995Z,11.93
2022-12-11T10:04:13.402Z,10.93
2022-12-11T10:06:08.405Z,10.32
2022-12-11T10:08:04.129Z,10.15
2022-12-11T10:10:04.254Z,9.80
2022-12-11T10:12:03.699Z,8.75
2022-12-11T10:13:47.603Z,9.10
2022-12-11T10:15:40.760Z,10.13
2022-12-11T10:17:13.883Z,7.95
2022-12-11T10:18:46.907Z,5.97
2022-12-11T10:20:31.545Z,5.57
2022-12-11T10:22:03.891Z,4.63
2022-12-11T10:25:33.336Z,4.07
2022-12-11T10:27:20.312Z,2.95
2022-12-11T10:28:52.416Z,3.40
2022-12-11T10:30:34.515Z,3.08
2022-12-11T10:32:16.412Z,3.08
2022-12-11T10:34:02.873Z,2.80
2022-12-11T10:36:01.038Z,2.58
2022-12-11T10:37:33.488Z,3.17
2022-12-11T10:39:26.096Z,2.80
2022-12-11T10:41:04.589Z,3.30
2022-12-11T10:42:41.284Z,2.55
2022-12-11T10:44:29.888Z,3.20
2022-12-11T10:46:02.211Z,3.40
2022-12-11T10:47:34.475Z,3.30
2022-12-11T10:49:06.498Z,3.85
2022-12-11T10:50:38.901Z,4.20
2022-12-11T10:52:13.725Z,4.07
2022-12-11T10:53:58.719Z,3.90
2022-12-11T10:55:48.851Z,3.75
2022-12-11T10:58:53.880Z,4.35
2022-12-11T11:00:41.924Z,4.60
2022-12-11T11:02:36.237Z,4.10
2022-12-11T11:04:16.418Z,3.88
2022-12-11T11:05:49.623Z,4.20
2022-12-11T11:07:29.205Z,3.90
2022-12-11T11:09:02.031Z,3.90
2022-12-11T11:10:34.093Z,4.22
2022-12-11T11:12:25.019Z,4.25
2022-12-11T11:14:08.954Z,4.30
2022-12-11T11:17:17.460Z,4.40
2022-12-11T11:18:55.008Z,4.35
2022-12-11T11:20:29.646Z,4.43
2022-12-11T11:22:06.244Z,5.20
2022-12-11T11:23:45.476Z,5.07
2022-12-11T11:25:22.109Z,4.10
2022-12-11T11:27:12.698Z,4.57
2022-12-11T11:28:50.324Z,6.75
2022-12-11T11:30:29.297Z,5.10
2022-12-11T11:33:35.737Z,3.90
2022-12-11T11:35:13.938Z,3.55
2022-12-11T11:36:56.618Z,4.15
2022-12-11T11:38:34.769Z,4.00
2022-12-11T11:40:15.736Z,3.80
2022-12-11T11:41:59.147Z,4.45
2022-12-11T11:43:41.171Z,4.05
2022-12-11T11:45:17.485Z,4.13
2022-12-11T11:47:04.362Z,3.88
2022-12-11T11:48:39.190Z,6.43
2022-12-11T11:50:18.500Z,6.28
2022-12-11T11:52:01.552Z,3.65
2022-12-11T11:53:38.419Z,3.88
2022-12-11T11:55:22.597Z,3.53
2022-12-11T11:56:56.645Z,2.50
2022-12-11T11:58:38.921Z,3.53
2022-12-11T12:00:27.587Z,2.80
2022-12-11T12:02:14.635Z,2.75
2022-12-11T12:03:48.597Z,3.45
2022-12-11T12:05:56.019Z,2.70
2022-12-11T12:07:43.703Z,3.03
2022-12-11T12:09:38.422Z,3.28
2022-12-11T12:11:23.009Z,2.97
2022-12-11T12:13:23.891Z,3.30
2022-12-11T12:15:22.254Z,3.33
2022-12-11T12:17:10.013Z,3.03
2022-12-11T12:18:44.673Z,3.25
2022-12-11T12:20:34.866Z,2.90
2022-12-11T12:22:31.656Z,2.90
2022-12-11T12:24:06.907Z,3.20
2022-12-11T12:25:43.104Z,3.30
2022-12-11T12:27:54.521Z,3.30
2022-12-11T12:29:56.112Z,3.28
2022-12-11T12:33:26.149Z,3.15
2022-12-11T12:35:03.795Z,3.22
2022-12-11T12:36:44.647Z,3.40
2022-12-11T12:38:35.551Z,3.35
2022-12-11T12:40:28.915Z,3.50
2022-12-11T12:42:44.247Z,3.55
2022-12-11T12:44:18.584Z,3.83
2022-12-11T12:46:00.659Z,4.72
2022-12-11T12:47:34.099Z,3.83
2022-12-11T12:49:12.796Z,3.97
2022-12-11T12:50:48.269Z,3.70
2022-12-11T12:52:39.626Z,3.78
2022-12-11T12:54:15.066Z,3.60
2022-12-11T12:55:48.755Z,3.67
2022-12-11T12:57:21.825Z,4.30
2022-12-11T12:58:53.910Z,3.97
2022-12-11T13:00:40.636Z,4.20
2022-12-11T13:02:14.524Z,3.90
2022-12-11T13:03:55.665Z,3.80
2022-12-11T13:05:30.232Z,3.95
2022-12-11T13:07:24.862Z,4.30
2022-12-11T13:08:56.959Z,4.25
2022-12-11T13:10:34.500Z,4.38
2022-12-11T13:12:15.043Z,4.18
2022-12-11T13:14:08.919Z,4.00
2022-12-11T13:15:45.343Z,4.28
2022-12-11T13:17:23.445Z,4.13
2022-12-11T13:18:55.388Z,4.03
2022-12-11T13:20:30.049Z,4.97
2022-12-11T13:22:22.018Z,4.60
2022-12-11T13:23:54.305Z,4.72
2022-12-11T13:25:29.516Z,4.72
2022-12-11T13:27:12.762Z,4.70
2022-12-11T13:28:44.925Z,4.88
2022-12-11T13:30:19.817Z,4.65
2022-12-11T13:31:59.518Z,5.50
2022-12-11T13:33:32.770Z,5.15
2022-12-11T13:35:06.873Z,5.38
2022-12-11T13:36:40.503Z,6.63
2022-12-11T13:38:17.853Z,6.53
2022-12-11T13:39:49.946Z,6.53
2022-12-11T13:41:22.044Z,5.93
2022-12-11T13:43:05.723Z,5.72
2022-12-11T13:44:41.031Z,5.22
2022-12-11T13:46:16.447Z,5.78
2022-12-11T13:47:48.621Z,5.20
2022-12-11T13:49:26.833Z,5.45
2022-12-11T13:50:59.717Z,4.93
2022-12-11T13:52:32.990Z,5.38
2022-12-11T13:54:20.005Z,5.95
2022-12-11T13:56:02.377Z,5.30
2022-12-11T13:57:34.419Z,5.80
2022-12-11T13:59:06.599Z,5.32
2022-12-11T14:00:38.669Z,5.47
2022-12-11T14:02:36.124Z,5.47
2022-12-11T14:04:14.396Z,6.57
2022-12-11T14:05:46.473Z,6.65
2022-12-11T14:07:37.058Z,6.95
2022-12-11T14:09:09.329Z,8.25
2022-12-11T14:10:41.420Z,9.93
2022-12-11T14:12:19.562Z,8.25
2022-12-11T14:13:51.567Z,10.32
2022-12-11T14:15:24.044Z,10.07
2022-12-11T14:16:56.310Z,8.15
2022-12-11T14:18:31.106Z,9.57
2022-12-11T14:20:08.512Z,8.68
2022-12-11T14:21:40.630Z,7.53
2022-12-11T14:23:22.836Z,6.72
2022-12-11T14:24:57.849Z,7.55
2022-12-11T14:26:32.615Z,6.30
2022-12-11T14:28:04.803Z,6.35
2022-12-11T14:29:36.889Z,5.18
2022-12-11T14:31:09.563Z,4.43
2022-12-11T14:32:45.010Z,4.35
2022-12-11T14:34:25.671Z,4.72
2022-12-11T14:35:58.233Z,4.88
2022-12-11T14:37:30.628Z,5.10
2022-12-11T14:40:54.030Z,3.88
2022-12-11T14:42:31.658Z,4.38
2022-12-11T14:44:05.719Z,3.70
2022-12-11T14:45:41.331Z,3.70
2022-12-11T14:47:26.347Z,3.80
2022-12-11T14:49:02.928Z,11.30
2022-12-11T14:50:47.819Z,6.78
2022-12-11T14:52:27.892Z,5.05
2022-12-11T14:54:00.281Z,4.78
2022-12-11T14:55:35.440Z,4.88
2022-12-11T14:57:08.252Z,4.55
2022-12-11T14:58:45.861Z,3.63
2022-12-11T15:00:29.532Z,3.42
2022-12-11T15:02:24.825Z,3.25
2022-12-11T15:04:20.634Z,2.80
2022-12-11T15:05:58.184Z,2.60
2022-12-11T15:07:30.199Z,3.42
2022-12-11T15:15:33.586Z,12.13
2022-12-11T15:17:13.009Z,6.53
2022-12-11T15:18:49.272Z,4.63
2022-12-11T15:20:31.447Z,6.38
2022-12-11T15:22:05.082Z,3.88
2022-12-11T15:25:29.172Z,2.65
2022-12-11T15:27:01.621Z,2.60
2022-12-11T15:28:38.298Z,1.85
2022-12-11T15:30:28.659Z,2.10
2022-12-11T15:32:11.259Z,1.77
2022-12-11T15:33:48.184Z,1.85
2022-12-11T15:35:24.362Z,2.05
2022-12-11T15:36:56.425Z,2.42
2022-12-11T15:38:31.701Z,6.88
2022-12-11T15:40:05.724Z,11.32
2022-12-11T15:41:40.587Z,5.18
2022-12-11T15:43:12.577Z,3.30
2022-12-11T15:44:44.812Z,3.10
2022-12-11T15:46:19.751Z,2.70
2022-12-11T15:47:52.977Z,2.67
2022-12-11T15:49:25.086Z,3.40
2022-12-11T15:50:57.465Z,3.20
2022-12-11T15:52:29.565Z,2.72
2022-12-11T15:54:01.523Z,2.75
2022-12-11T15:55:35.354Z,2.20
2022-12-11T15:57:14.876Z,2.50
2022-12-11T15:58:51.953Z,2.70
2022-12-11T16:00:24.395Z,2.45
2022-12-11T16:01:56.467Z,2.60
2022-12-11T16:03:28.530Z,3.17
2022-12-11T16:05:00.511Z,2.80
2022-12-11T16:06:35.580Z,3.00
2022-12-11T16:08:08.239Z,2.47
2022-12-11T16:09:40.446Z,2.55
2022-12-11T16:11:14.068Z,2.50
2022-12-11T16:14:18.051Z,2.90
2022-12-11T16:15:51.777Z,4.10
2022-12-11T16:17:24.051Z,2.85
2022-12-11T16:18:56.138Z,2.78
2022-12-11T16:20:28.550Z,2.90
2022-12-11T16:22:00.774Z,2.65
2022-12-11T16:23:32.840Z,3.03
2022-12-11T16:25:05.314Z,6.75
2022-12-11T16:26:37.302Z,6.00
2022-12-11T16:28:09.786Z,6.00
2022-12-11T16:29:42.326Z,3.75
2022-12-11T16:31:15.449Z,4.13
2022-12-11T16:32:47.523Z,4.15
2022-12-11T16:34:19.645Z,3.40
2022-12-11T16:35:52.668Z,3.05
2022-12-11T16:37:24.743Z,3.70
2022-12-11T16:38:57.144Z,3.60
2022-12-11T16:40:29.253Z,3.10
2022-12-11T16:42:01.314Z,3.30
2022-12-11T16:43:33.550Z,3.03
2022-12-11T16:45:08.892Z,2.90
2022-12-11T16:46:41.168Z,2.95
2022-12-11T16:48:13.183Z,2.85
2022-12-11T16:49:45.571Z,2.60
2022-12-11T16:51:18.301Z,2.30
2022-12-11T16:52:50.426Z,2.58
2022-12-11T16:54:22.440Z,4.30
2022-12-11T16:55:54.509Z,4.88
2022-12-11T16:57:26.640Z,4.60
2022-12-11T16:58:58.681Z,6.75
2022-12-11T17:00:30.597Z,6.90
2022-12-11T17:02:02.556Z,3.88
2022-12-11T17:03:34.562Z,3.00
2022-12-11T17:05:06.785Z,3.03
2022-12-11T17:06:38.840Z,2.90
2022-12-11T17:08:10.907Z,2.80
2022-12-11T17:09:43.387Z,2.40
2022-12-11T17:11:18.133Z,2.50
2022-12-11T17:12:50.133Z,2.45
2022-12-11T17:14:22.141Z,2.88
2022-12-11T17:15:54.206Z,3.15
2022-12-11T17:17:26.498Z,3.28
2022-12-11T17:18:58.714Z,3.30
2022-12-11T17:20:30.809Z,3.40
2022-12-11T17:22:03.051Z,3.65
2022-12-11T17:23:35.832Z,4.30
2022-12-11T17:25:08.220Z,4.53
2022-12-11T17:26:41.810Z,4.53
2022-12-11T17:29:46.201Z,3.83
2022-12-11T17:31:19.314Z,4.15
2022-12-11T17:34:24.239Z,4.40
2022-12-11T17:35:56.442Z,5.13
2022-12-11T17:37:28.427Z,4.78
2022-12-11T17:39:00.549Z,5.10
2022-12-11T17:40:32.623Z,5.43
2022-12-11T17:42:04.828Z,5.53
2022-12-11T17:43:37.036Z,5.90
2022-12-11T17:45:09.516Z,5.60
2022-12-11T17:46:41.835Z,6.10
2022-12-11T17:48:15.106Z,6.50
2022-12-11T17:49:47.311Z,6.20
2022-12-11T17:51:24.742Z,6.75
2022-12-11T17:52:58.006Z,6.32
2022-12-11T17:54:30.047Z,7.45
2022-12-11T17:56:03.974Z,7.07
2022-12-11T17:57:38.298Z,8.05
2022-12-11T17:59:10.417Z,7.82
2022-12-11T18:00:44.835Z,8.45
2022-12-11T18:02:19.957Z,8.27
2022-12-11T18:03:52.068Z,8.15
2022-12-11T18:05:25.522Z,8.45
2022-12-11T18:06:57.505Z,8.63
2022-12-11T18:08:30.513Z,8.18
2022-12-11T18:10:02.726Z,8.90
2022-12-11T18:11:35.193Z,9.50
2022-12-11T18:13:07.508Z,9.07
2022-12-11T18:14:39.692Z,8.90
2022-12-11T18:16:19.897Z,8.93
2022-12-11T18:17:52.061Z,9.00
2022-12-11T18:19:25.688Z,8.98
2022-12-11T18:20:57.803Z,8.82
2022-12-11T18:22:29.891Z,8.90
2022-12-11T18:24:02.499Z,8.27
2022-12-11T18:25:34.687Z,9.32
2022-12-11T18:27:10.592Z,8.73
2022-12-11T18:28:43.034Z,10.35
2022-12-11T18:30:15.380Z,9.45
2022-12-11T18:31:47.550Z,9.10
2022-12-11T18:33:19.705Z,8.65
2022-12-11T18:34:51.792Z,8.32
2022-12-11T18:36:23.872Z,7.32
2022-12-11T18:37:56.141Z,7.70
2022-12-11T18:39:28.154Z,7.57
2022-12-11T18:41:04.273Z,7.13
2022-12-11T18:42:36.512Z,6.53
2022-12-11T18:44:10.138Z,7.32
2022-12-11T18:45:45.527Z,6.45
2022-12-11T18:49:02.264Z,5.78
2022-12-11T18:50:35.112Z,6.22
2022-12-11T18:52:07.271Z,5.43
2022-12-11T18:53:41.161Z,6.00
2022-12-11T18:55:13.292Z,5.15
2022-12-11T18:56:48.407Z,4.70
2022-12-11T18:58:20.910Z,4.88
2022-12-11T18:59:53.763Z,5.18
2022-12-11T19:01:29.157Z,5.20
2022-12-11T19:03:02.414Z,5.40
2022-12-11T19:04:36.521Z,5.10
2022-12-11T19:06:15.043Z,5.10
2022-12-11T19:07:47.128Z,5.88
2022-12-11T19:09:19.269Z,6.03
2022-12-11T19:10:53.784Z,6.03
2022-12-11T19:12:25.967Z,5.75
2022-12-11T19:13:58.413Z,6.25
2022-12-11T19:15:30.411Z,6.85
2022-12-11T19:17:03.496Z,6.72
2022-12-11T19:18:37.802Z,7.35
2022-12-11T19:20:40.254Z,7.10
2022-12-11T19:22:02.682Z,8.15
2022-12-11T19:23:34.712Z,8.13
2022-12-11T19:25:07.537Z,8.05
2022-12-11T19:26:39.645Z,7.70
2022-12-11T19:28:12.002Z,8.80
2022-12-11T19:29:44.085Z,8.15
2022-12-11T19:31:21.246Z,9.00
2022-12-11T19:32:53.213Z,8.50
2022-12-11T19:34:25.571Z,9.13
2022-12-11T19:36:05.595Z,8.82
2022-12-11T19:37:37.581Z,8.75
2022-12-11T19:39:13.193Z,8.80
2022-12-11T19:40:45.851Z,8.65
2022-12-11T19:42:20.167Z,8.82
2022-12-11T19:43:52.167Z,8.93
2022-12-11T19:45:24.130Z,8.45
2022-12-11T19:46:56.202Z,8.52
2022-12-11T19:48:30.744Z,8.38
2022-12-11T19:50:02.814Z,8.00
2022-12-11T19:51:38.803Z,8.68
2022-12-11T19:53:10.916Z,8.40
2022-12-11T19:54:42.933Z,8.45
2022-12-11T19:56:15.691Z,7.97
2022-12-11T19:57:48.056Z,8.05
2022-12-11T19:59:20.069Z,8.75
2022-12-11T20:00:52.223Z,7.75
2022-12-11T20:02:24.344Z,7.95
2022-12-11T20:03:58.858Z,7.97
2022-12-11T20:05:30.876Z,7.85
2022-12-11T20:07:02.997Z,7.43
2022-12-11T20:08:44.519Z,7.32
2022-12-11T20:10:17.546Z,7.68
2022-12-11T20:11:49.751Z,7.55
2022-12-11T20:13:21.947Z,7.47
2022-12-11T20:14:53.928Z,7.82
2022-12-11T20:16:46.379Z,7.22
2022-12-11T20:18:18.818Z,8.45
2022-12-11T20:19:51.977Z,8.45
2022-12-11T20:23:01.256Z,7.57
2022-12-11T20:24:33.583Z,7.53
2022-12-11T20:26:11.033Z,7.95
2022-12-11T20:27:43.226Z,7.57
2022-12-11T20:29:15.488Z,7.38
2022-12-11T20:30:49.065Z,7.32
2022-12-11T20:33:54.019Z,6.75
2022-12-11T20:35:26.950Z,7.10
2022-12-11T20:37:00.552Z,6.57
2022-12-11T20:38:34.549Z,7.60
2022-12-11T20:40:07.620Z,7.35
2022-12-11T20:41:39.832Z,6.95
2022-12-11T20:43:11.856Z,7.45
2022-12-11T20:44:48.740Z,7.75
2022-12-11T20:46:23.814Z,7.20
2022-12-11T20:47:55.742Z,6.80
2022-12-11T20:49:27.851Z,7.57
2022-12-11T20:52:31.707Z,6.80
2022-12-11T20:54:03.860Z,7.07
2022-12-11T20:55:42.439Z,7.38
2022-12-11T20:57:16.646Z,7.55
2022-12-11T20:58:48.710Z,6.63
2022-12-11T21:00:20.912Z,6.90
2022-12-11T21:01:53.087Z,7.68
2022-12-11T21:03:25.253Z,6.93
2022-12-11T21:04:58.063Z,7.20
2022-12-11T21:06:33.963Z,6.82
2022-12-11T21:08:06.296Z,7.40
2022-12-11T21:09:39.116Z,7.97
2022-12-11T21:11:11.174Z,7.80
2022-12-11T21:12:43.299Z,7.50
2022-12-11T21:14:16.620Z,7.72
2022-12-11T21:15:52.875Z,7.90
2022-12-11T21:17:24.910Z,8.10
2022-12-11T21:18:57.795Z,7.65
2022-12-11T21:20:29.826Z,7.07
2022-12-11T21:22:01.993Z,7.32
2022-12-11T21:23:34.247Z,7.13
2022-12-11T21:25:06.650Z,7.13
2022-12-11T21:26:38.670Z,7.05
2022-12-11T21:28:10.677Z,7.15
2022-12-11T21:29:42.654Z,7.18
2022-12-11T21:31:17.440Z,7.03